Seattle, Washington
Traffic Map
Current Weather Conditions
Seattle, Washington
Broken Clouds Haze
Broken Clouds
53°
Feels Like: 53°
Wind Chill: 53° Ceiling: 1100
Heat Index: 53° Visibility: 6mi
Dew Point: 48° Wind: 14mph
Humidity: 83% Direction: 150° (SSE)
Pressure: 29.95in Gusts: 0mph
Raw Report DataKBFI 231853Z 15012KT 6SM HZ SCT008 BKN011 12/09 A2995 RMK AO2 SLP142 T01170089
Traffic Incident Summary
Active as of:
Severity:
Category:
InformationThere was an issue retrieving the traffic information for this location. Please try a different location or try again shortly.
Advertisements